Pattonville Airfield

METAR ETHN TAF EDTY
-2 °C
°C
-
°C
1h
Alter
05:26:00
LT
04:26
UTC
0 ft

1.000

2.000

3.000

4.000

5.000

SCT 600
BKN 1.300
MVFR
<?= Yii::t('app', 'Wind direction') ?> <?= Yii::t('app', 'of'); ?>
230°
07:54
Sonne auf
86%
Luftfeuchtigkeit
Windscherung
Geschlossen/Schnee
RWY-Sichtweite
RWY Zustand
Vert. Sichtweite
Min. Sichtbarkeit
CAVOK
Trend
Korrektur
Besonderer Bericht
1019 hPa
QNH
METAR ETHN 300320Z 23014KT 9999 -SN SCT006 BKN013 M02/M04 Q1019 GRN
Leicht Schnee
11 kt
11 kt
10 km+
Sichtweite
1.300 ft
Wolkendecke
14 kt
Wind
metar-taf.com/EDTQ

Metar-Taf.com

Visueller Decoder

Wir und Dritte verfolgen dein Internetverhalten auf unserer Website mit Cookies. Wenn du fortfährst, gehen wir davon aus, dass du mit unserer Cookie-Richtlinie einverstanden bist.